This is the latest recevied weather packets stored in our database for station/object N1ICS-1. If no packets are shown the sender has not sent any weather packets the latest 10 day(s).
| Time | Temp. | Humidity | Pressure | Rain* | Wind** | Luminosity | Snow |
|---|---|---|---|---|---|---|---|
| 1777905002 | 17.22° C | 69% | 1008.3 hPa | 0 mm | - | 705 W/m² | - |
| 1777904701 | 17.22° C | 68% | 1008.4 hPa | 0 mm | - | 679 W/m² | - |
| 1777904402 | 16.67° C | 69% | 1008.5 hPa | 0 mm | - | 652 W/m² | - |
| 1777904102 | 16.67° C | 69% | 1008.1 hPa | 0 mm | - | 654 W/m² | - |
| 1777903802 | 16.67° C | 68% | 1008.5 hPa | 0 mm | - | 627 W/m² | - |
| 1777903502 | 16.11° C | 70% | 1008.4 hPa | 0 mm | - | 623 W/m² | - |
| 1777903202 | 16.67° C | 68% | 1008.4 hPa | 0 mm | - | 595 W/m² | - |
| 1777902902 | 16.11° C | 71% | 1008.3 hPa | 0 mm | - | 574 W/m² | - |
| 1777902603 | 16.11° C | 69% | 1008.5 hPa | 0 mm | - | 550 W/m² | - |
| 1777902302 | 15.56° C | 69% | 1008.5 hPa | 0 mm | - | 537 W/m² | - |
| 1777902002 | 15.56° C | 70% | 1008.5 hPa | 0 mm | - | 519 W/m² | - |
| 1777901701 | 15.56° C | 70% | 1008.5 hPa | 0 mm | - | 509 W/m² | - |
| 1777901402 | 15.56° C | 70% | 1008.5 hPa | 0 mm | - | 483 W/m² | - |
| 1777901102 | 15° C | 72% | 1008.6 hPa | 0 mm | - | 470 W/m² | - |
| 1777900802 | 15° C | 71% | 1008.6 hPa | 0 mm | - | 440 W/m² | - |
| 1777900502 | 15° C | 71% | 1008.8 hPa | 0 mm | - | 423 W/m² | - |
| 1777900202 | 14.44° C | 71% | 1008.7 hPa | 0 mm | - | 401 W/m² | - |
| 1777899902 | 14.44° C | 73% | 1008.8 hPa | 0 mm | - | 380 W/m² | - |
| 1777899603 | 13.89° C | 73% | 1009 hPa | 0 mm | - | 362 W/m² | - |
| 1777899302 | 13.89° C | 74% | 1008.9 hPa | 0 mm | - | 343 W/m² | - |
| 1777899002 | 13.89° C | 74% | 1008.8 hPa | 0 mm | - | 323 W/m² | - |
| 1777898702 | 13.33° C | 75% | 1009.1 hPa | 0 mm | - | 302 W/m² | - |
| 1777898402 | 13.33° C | 75% | 1009.1 hPa | 0 mm | - | 285 W/m² | - |
| 1777898101 | 12.78° C | 76% | 1009.1 hPa | 0 mm | - | 266 W/m² | - |
| 1777897801 | 12.78° C | 76% | 1009.1 hPa | 0 mm | - | 251 W/m² | - |
* Rain latest hour (hover to see other rain measurements)
** Current wind speed in m/s (hover to see current wind gust speed)